sensor_id;sensor_type;location;lat;lon;timestamp;temperature;humidity
51825;DHT22;37879;52.986;6.282;2022-10-16T00:00:32;12.10;99.90
51825;DHT22;37879;52.986;6.282;2022-10-16T00:02:58;12.10;99.90
51825;DHT22;37879;52.986;6.282;2022-10-16T00:05:23;12.20;99.90
51825;DHT22;37879;52.986;6.282;2022-10-16T00:07:49;12.20;99.90
51825;DHT22;37879;52.986;6.282;2022-10-16T00:10:15;12.20;99.90
51825;DHT22;37879;52.986;6.282;2022-10-16T00:12:41;12.20;99.90
51825;DHT22;37879;52.986;6.282;2022-10-16T00:15:07;12.20;99.90
51825;DHT22;37879;52.986;6.282;2022-10-16T00:17:33;12.20;99.90
51825;DHT22;37879;52.986;6.282;2022-10-16T00:19:58;12.20;99.90
51825;DHT22;37879;52.986;6.282;2022-10-16T00:22:24;12.20;99.90
51825;DHT22;37879;52.986;6.282;2022-10-16T00:24:50;12.20;99.90
51825;DHT22;37879;52.986;6.282;2022-10-16T00:27:16;12.20;99.90
51825;DHT22;37879;52.986;6.282;2022-10-16T00:29:42;12.20;99.90
51825;DHT22;37879;52.986;6.282;2022-10-16T00:32:08;12.30;99.90
51825;DHT22;37879;52.986;6.282;2022-10-16T00:34:33;12.30;99.90
51825;DHT22;37879;52.986;6.282;2022-10-16T00:36:59;12.30;99.90
51825;DHT22;37879;52.986;6.282;2022-10-16T00:39:25;12.30;99.90
51825;DHT22;37879;52.986;6.282;2022-10-16T00:41:51;12.30;99.90
51825;DHT22;37879;52.986;6.282;2022-10-16T00:50:37;12.40;99.90
51825;DHT22;37879;52.986;6.282;2022-10-16T00:53:04;12.40;99.90
51825;DHT22;37879;52.986;6.282;2022-10-16T00:55:30;12.40;99.90
51825;DHT22;37879;52.986;6.282;2022-10-16T00:57:57;12.40;99.90
51825;DHT22;37879;52.986;6.282;2022-10-16T01:00:26;12.40;99.90
51825;DHT22;37879;52.986;6.282;2022-10-16T01:02:53;12.40;99.90
51825;DHT22;37879;52.986;6.282;2022-10-16T01:05:21;12.40;99.90
51825;DHT22;37879;52.986;6.282;2022-10-16T01:07:56;12.40;99.90
51825;DHT22;37879;52.986;6.282;2022-10-16T01:13:07;12.40;99.90
51825;DHT22;37879;52.986;6.282;2022-10-16T01:15:47;12.50;99.90
51825;DHT22;37879;52.986;6.282;2022-10-16T01:31:50;12.70;99.90
51825;DHT22;37879;52.986;6.282;2022-10-16T01:34:22;12.60;99.90
51825;DHT22;37879;52.986;6.282;2022-10-16T01:36:57;12.60;99.90
51825;DHT22;37879;52.986;6.282;2022-10-16T01:39:29;12.60;99.90
51825;DHT22;37879;52.986;6.282;2022-10-16T01:42:04;12.60;99.90
51825;DHT22;37879;52.986;6.282;2022-10-16T01:44:32;12.60;99.90
51825;DHT22;37879;52.986;6.282;2022-10-16T01:46:59;12.60;99.90
51825;DHT22;37879;52.986;6.282;2022-10-16T01:49:27;12.60;99.90
51825;DHT22;37879;52.986;6.282;2022-10-16T01:51:56;12.60;99.90
51825;DHT22;37879;52.986;6.282;2022-10-16T01:54:27;12.50;99.90
51825;DHT22;37879;52.986;6.282;2022-10-16T01:56:55;12.50;99.90
51825;DHT22;37879;52.986;6.282;2022-10-16T01:59:23;12.50;99.90
51825;DHT22;37879;52.986;6.282;2022-10-16T02:01:54;12.50;99.90
51825;DHT22;37879;52.986;6.282;2022-10-16T02:04:32;12.50;99.90
51825;DHT22;37879;52.986;6.282;2022-10-16T02:06:58;12.60;99.90
51825;DHT22;37879;52.986;6.282;2022-10-16T02:09:24;12.60;99.90
51825;DHT22;37879;52.986;6.282;2022-10-16T02:11:54;12.60;99.90
51825;DHT22;37879;52.986;6.282;2022-10-16T02:14:21;12.60;99.90
51825;DHT22;37879;52.986;6.282;2022-10-16T02:16:49;12.60;99.90
51825;DHT22;37879;52.986;6.282;2022-10-16T02:19:17;12.60;99.90
51825;DHT22;37879;52.986;6.282;2022-10-16T02:21:56;12.60;99.90
51825;DHT22;37879;52.986;6.282;2022-10-16T02:24:53;12.60;99.90
51825;DHT22;37879;52.986;6.282;2022-10-16T02:27:38;12.60;99.90
51825;DHT22;37879;52.986;6.282;2022-10-16T02:30:08;12.60;99.90
51825;DHT22;37879;52.986;6.282;2022-10-16T02:32:40;12.70;99.90
51825;DHT22;37879;52.986;6.282;2022-10-16T02:35:08;12.60;99.90
51825;DHT22;37879;52.986;6.282;2022-10-16T02:37:34;12.60;99.90
51825;DHT22;37879;52.986;6.282;2022-10-16T02:40:00;12.70;99.90
51825;DHT22;37879;52.986;6.282;2022-10-16T02:42:38;12.70;99.90
51825;DHT22;37879;52.986;6.282;2022-10-16T02:45:05;12.70;99.90
51825;DHT22;37879;52.986;6.282;2022-10-16T02:47:31;12.70;99.90
51825;DHT22;37879;52.986;6.282;2022-10-16T02:49:57;12.70;99.90
51825;DHT22;37879;52.986;6.282;2022-10-16T02:52:22;12.70;99.90
51825;DHT22;37879;52.986;6.282;2022-10-16T02:54:48;12.60;99.90
51825;DHT22;37879;52.986;6.282;2022-10-16T02:57:14;12.60;99.90
51825;DHT22;37879;52.986;6.282;2022-10-16T02:59:40;12.50;99.90
51825;DHT22;37879;52.986;6.282;2022-10-16T03:02:05;12.50;99.90
51825;DHT22;37879;52.986;6.282;2022-10-16T03:04:31;12.50;99.90
51825;DHT22;37879;52.986;6.282;2022-10-16T03:06:57;12.60;99.90
51825;DHT22;37879;52.986;6.282;2022-10-16T03:09:22;12.60;99.90
51825;DHT22;37879;52.986;6.282;2022-10-16T03:11:48;12.60;99.90
51825;DHT22;37879;52.986;6.282;2022-10-16T03:14:14;12.60;99.90
51825;DHT22;37879;52.986;6.282;2022-10-16T03:16:39;12.60;99.90
51825;DHT22;37879;52.986;6.282;2022-10-16T03:19:05;12.60;99.90
51825;DHT22;37879;52.986;6.282;2022-10-16T03:21:30;12.60;99.90
51825;DHT22;37879;52.986;6.282;2022-10-16T03:23:56;12.60;99.90
51825;DHT22;37879;52.986;6.282;2022-10-16T03:26:22;12.60;99.90
51825;DHT22;37879;52.986;6.282;2022-10-16T03:28:47;12.60;99.90
51825;DHT22;37879;52.986;6.282;2022-10-16T03:31:13;12.60;99.90
51825;DHT22;37879;52.986;6.282;2022-10-16T03:33:39;12.60;99.90
51825;DHT22;37879;52.986;6.282;2022-10-16T03:36:05;12.60;99.90
51825;DHT22;37879;52.986;6.282;2022-10-16T03:38:30;12.60;99.90
51825;DHT22;37879;52.986;6.282;2022-10-16T03:40:56;12.50;99.90
51825;DHT22;37879;52.986;6.282;2022-10-16T03:43:22;12.50;99.90
51825;DHT22;37879;52.986;6.282;2022-10-16T03:45:49;12.50;99.90
51825;DHT22;37879;52.986;6.282;2022-10-16T03:48:15;12.50;99.90
51825;DHT22;37879;52.986;6.282;2022-10-16T03:50:40;12.40;99.90
51825;DHT22;37879;52.986;6.282;2022-10-16T03:53:06;12.40;99.90
51825;DHT22;37879;52.986;6.282;2022-10-16T03:55:32;12.40;99.90
51825;DHT22;37879;52.986;6.282;2022-10-16T03:57:57;12.40;99.90
51825;DHT22;37879;52.986;6.282;2022-10-16T04:00:23;12.40;99.90
51825;DHT22;37879;52.986;6.282;2022-10-16T04:02:49;12.40;99.90
51825;DHT22;37879;52.986;6.282;2022-10-16T04:05:15;12.40;99.90
51825;DHT22;37879;52.986;6.282;2022-10-16T04:07:40;12.40;99.90
51825;DHT22;37879;52.986;6.282;2022-10-16T04:10:06;12.40;99.90
51825;DHT22;37879;52.986;6.282;2022-10-16T04:12:32;12.40;99.90
51825;DHT22;37879;52.986;6.282;2022-10-16T04:14:57;12.40;99.90
51825;DHT22;37879;52.986;6.282;2022-10-16T04:17:23;12.30;99.90
51825;DHT22;37879;52.986;6.282;2022-10-16T04:19:49;12.30;99.90
51825;DHT22;37879;52.986;6.282;2022-10-16T04:22:14;12.30;99.90
51825;DHT22;37879;52.986;6.282;2022-10-16T04:24:40;12.30;99.90
51825;DHT22;37879;52.986;6.282;2022-10-16T04:27:06;12.30;99.90
51825;DHT22;37879;52.986;6.282;2022-10-16T04:29:31;12.30;99.90
51825;DHT22;37879;52.986;6.282;2022-10-16T04:31:57;12.30;99.90
51825;DHT22;37879;52.986;6.282;2022-10-16T04:34:23;12.30;99.90
51825;DHT22;37879;52.986;6.282;2022-10-16T04:36:48;12.30;99.90
51825;DHT22;37879;52.986;6.282;2022-10-16T04:39:17;12.40;99.90
51825;DHT22;37879;52.986;6.282;2022-10-16T04:41:42;12.40;99.90
51825;DHT22;37879;52.986;6.282;2022-10-16T04:44:08;12.50;99.90
51825;DHT22;37879;52.986;6.282;2022-10-16T04:46:34;12.50;99.90
51825;DHT22;37879;52.986;6.282;2022-10-16T04:49:00;12.50;99.90
51825;DHT22;37879;52.986;6.282;2022-10-16T04:51:25;12.50;99.90
51825;DHT22;37879;52.986;6.282;2022-10-16T04:53:53;12.50;99.90
51825;DHT22;37879;52.986;6.282;2022-10-16T04:56:18;12.50;99.90
51825;DHT22;37879;52.986;6.282;2022-10-16T04:58:44;12.50;99.90
51825;DHT22;37879;52.986;6.282;2022-10-16T05:01:10;12.50;99.90
51825;DHT22;37879;52.986;6.282;2022-10-16T05:03:35;12.50;99.90
51825;DHT22;37879;52.986;6.282;2022-10-16T05:06:01;12.60;99.90
51825;DHT22;37879;52.986;6.282;2022-10-16T05:08:27;12.50;99.90
51825;DHT22;37879;52.986;6.282;2022-10-16T05:10:52;12.60;99.90
51825;DHT22;37879;52.986;6.282;2022-10-16T05:13:18;12.60;99.90
51825;DHT22;37879;52.986;6.282;2022-10-16T05:15:47;12.60;99.90
51825;DHT22;37879;52.986;6.282;2022-10-16T05:18:13;12.70;99.90
51825;DHT22;37879;52.986;6.282;2022-10-16T05:20:39;12.70;99.90
51825;DHT22;37879;52.986;6.282;2022-10-16T05:23:05;12.70;99.90
51825;DHT22;37879;52.986;6.282;2022-10-16T05:25:30;12.70;99.90
51825;DHT22;37879;52.986;6.282;2022-10-16T05:27:56;12.70;99.90
51825;DHT22;37879;52.986;6.282;2022-10-16T05:30:22;12.70;99.90
51825;DHT22;37879;52.986;6.282;2022-10-16T05:32:49;12.70;99.90
51825;DHT22;37879;52.986;6.282;2022-10-16T05:35:15;12.70;99.90
51825;DHT22;37879;52.986;6.282;2022-10-16T05:37:41;12.70;99.90
51825;DHT22;37879;52.986;6.282;2022-10-16T05:40:08;12.70;99.90
51825;DHT22;37879;52.986;6.282;2022-10-16T05:42:34;12.70;99.90
51825;DHT22;37879;52.986;6.282;2022-10-16T05:44:59;12.70;99.90
51825;DHT22;37879;52.986;6.282;2022-10-16T05:47:25;12.70;99.90
51825;DHT22;37879;52.986;6.282;2022-10-16T05:49:50;12.70;99.90
51825;DHT22;37879;52.986;6.282;2022-10-16T05:52:16;12.60;99.90
51825;DHT22;37879;52.986;6.282;2022-10-16T05:54:43;12.70;99.90
51825;DHT22;37879;52.986;6.282;2022-10-16T05:57:08;12.70;99.90
51825;DHT22;37879;52.986;6.282;2022-10-16T05:59:34;12.70;99.90
51825;DHT22;37879;52.986;6.282;2022-10-16T06:02:00;12.70;99.90
51825;DHT22;37879;52.986;6.282;2022-10-16T06:04:26;12.70;99.90
51825;DHT22;37879;52.986;6.282;2022-10-16T06:06:52;12.70;99.90
51825;DHT22;37879;52.986;6.282;2022-10-16T06:09:17;12.70;99.90
51825;DHT22;37879;52.986;6.282;2022-10-16T06:11:43;12.60;99.90
51825;DHT22;37879;52.986;6.282;2022-10-16T06:14:09;12.60;99.90
51825;DHT22;37879;52.986;6.282;2022-10-16T06:16:36;12.60;99.90
51825;DHT22;37879;52.986;6.282;2022-10-16T06:19:03;12.60;99.90
51825;DHT22;37879;52.986;6.282;2022-10-16T06:21:32;12.60;99.90
51825;DHT22;37879;52.986;6.282;2022-10-16T06:23:58;12.60;99.90
51825;DHT22;37879;52.986;6.282;2022-10-16T06:26:26;12.60;99.90
51825;DHT22;37879;52.986;6.282;2022-10-16T06:28:54;12.60;99.90
51825;DHT22;37879;52.986;6.282;2022-10-16T06:31:20;12.60;99.90
51825;DHT22;37879;52.986;6.282;2022-10-16T06:33:50;12.60;99.90
51825;DHT22;37879;52.986;6.282;2022-10-16T06:36:17;12.60;99.90
51825;DHT22;37879;52.986;6.282;2022-10-16T06:38:43;12.70;99.90
51825;DHT22;37879;52.986;6.282;2022-10-16T06:41:18;12.70;99.90
51825;DHT22;37879;52.986;6.282;2022-10-16T06:43:44;12.70;99.90
51825;DHT22;37879;52.986;6.282;2022-10-16T06:46:15;12.70;99.90
51825;DHT22;37879;52.986;6.282;2022-10-16T06:48:41;12.70;99.90
51825;DHT22;37879;52.986;6.282;2022-10-16T06:51:10;12.70;99.90
51825;DHT22;37879;52.986;6.282;2022-10-16T06:53:38;12.80;99.90
51825;DHT22;37879;52.986;6.282;2022-10-16T06:56:09;12.80;99.90
51825;DHT22;37879;52.986;6.282;2022-10-16T06:58:35;12.80;99.90
51825;DHT22;37879;52.986;6.282;2022-10-16T07:01:01;12.80;99.90
51825;DHT22;37879;52.986;6.282;2022-10-16T07:03:27;12.80;99.90
51825;DHT22;37879;52.986;6.282;2022-10-16T07:05:52;12.90;99.90
51825;DHT22;37879;52.986;6.282;2022-10-16T07:08:18;12.90;99.90
51825;DHT22;37879;52.986;6.282;2022-10-16T07:10:46;12.90;99.90
51825;DHT22;37879;52.986;6.282;2022-10-16T07:13:12;12.90;99.90
51825;DHT22;37879;52.986;6.282;2022-10-16T07:15:40;12.90;99.90
51825;DHT22;37879;52.986;6.282;2022-10-16T07:18:06;12.90;99.90
51825;DHT22;37879;52.986;6.282;2022-10-16T07:20:31;12.90;99.90
51825;DHT22;37879;52.986;6.282;2022-10-16T07:22:57;12.90;99.90
51825;DHT22;37879;52.986;6.282;2022-10-16T07:25:23;12.90;99.90
51825;DHT22;37879;52.986;6.282;2022-10-16T07:27:48;12.80;99.90
51825;DHT22;37879;52.986;6.282;2022-10-16T07:30:14;12.80;99.90
51825;DHT22;37879;52.986;6.282;2022-10-16T07:32:40;12.80;99.90
51825;DHT22;37879;52.986;6.282;2022-10-16T07:35:06;12.90;99.90
51825;DHT22;37879;52.986;6.282;2022-10-16T07:37:32;12.90;99.90
51825;DHT22;37879;52.986;6.282;2022-10-16T07:39:58;13.00;99.90
51825;DHT22;37879;52.986;6.282;2022-10-16T07:42:23;13.00;99.90
51825;DHT22;37879;52.986;6.282;2022-10-16T07:44:49;13.00;99.90
51825;DHT22;37879;52.986;6.282;2022-10-16T07:47:15;13.10;99.90
51825;DHT22;37879;52.986;6.282;2022-10-16T07:49:41;13.10;99.90
51825;DHT22;37879;52.986;6.282;2022-10-16T07:52:07;13.20;99.90
51825;DHT22;37879;52.986;6.282;2022-10-16T07:54:32;13.30;99.90
51825;DHT22;37879;52.986;6.282;2022-10-16T07:56:58;13.30;99.90
51825;DHT22;37879;52.986;6.282;2022-10-16T07:59:24;13.40;99.90
51825;DHT22;37879;52.986;6.282;2022-10-16T08:01:49;13.40;99.90
51825;DHT22;37879;52.986;6.282;2022-10-16T08:04:15;13.40;99.90
51825;DHT22;37879;52.986;6.282;2022-10-16T08:06:41;13.50;99.90
51825;DHT22;37879;52.986;6.282;2022-10-16T08:09:08;13.50;99.90
51825;DHT22;37879;52.986;6.282;2022-10-16T08:11:34;13.40;99.90
51825;DHT22;37879;52.986;6.282;2022-10-16T08:13:59;13.40;99.90
51825;DHT22;37879;52.986;6.282;2022-10-16T08:16:25;13.30;99.90
51825;DHT22;37879;52.986;6.282;2022-10-16T08:18:51;13.20;99.90
51825;DHT22;37879;52.986;6.282;2022-10-16T08:21:19;13.20;99.90
51825;DHT22;37879;52.986;6.282;2022-10-16T08:23:45;13.20;99.90
51825;DHT22;37879;52.986;6.282;2022-10-16T08:26:11;13.20;99.90
51825;DHT22;37879;52.986;6.282;2022-10-16T08:28:37;13.20;99.90
51825;DHT22;37879;52.986;6.282;2022-10-16T08:31:07;13.20;99.90
51825;DHT22;37879;52.986;6.282;2022-10-16T08:33:33;13.20;99.90
51825;DHT22;37879;52.986;6.282;2022-10-16T08:36:01;13.20;99.90
51825;DHT22;37879;52.986;6.282;2022-10-16T08:38:27;13.30;99.90
51825;DHT22;37879;52.986;6.282;2022-10-16T08:40:57;13.30;99.90
51825;DHT22;37879;52.986;6.282;2022-10-16T08:43:40;13.30;99.90
51825;DHT22;37879;52.986;6.282;2022-10-16T08:46:34;13.40;99.90
51825;DHT22;37879;52.986;6.282;2022-10-16T08:49:08;13.50;99.90
51825;DHT22;37879;52.986;6.282;2022-10-16T08:51:36;13.50;99.90
51825;DHT22;37879;52.986;6.282;2022-10-16T08:54:22;13.60;99.90
51825;DHT22;37879;52.986;6.282;2022-10-16T08:56:48;13.60;99.90
51825;DHT22;37879;52.986;6.282;2022-10-16T08:59:16;13.70;99.90
51825;DHT22;37879;52.986;6.282;2022-10-16T09:01:46;13.70;99.90
51825;DHT22;37879;52.986;6.282;2022-10-16T09:10:19;13.90;99.90
51825;DHT22;37879;52.986;6.282;2022-10-16T09:13:08;13.90;99.90
51825;DHT22;37879;52.986;6.282;2022-10-16T09:15:55;14.00;99.90
51825;DHT22;37879;52.986;6.282;2022-10-16T09:18:37;14.00;99.90
51825;DHT22;37879;52.986;6.282;2022-10-16T09:21:24;14.10;99.90
51825;DHT22;37879;52.986;6.282;2022-10-16T09:23:51;14.20;99.90
51825;DHT22;37879;52.986;6.282;2022-10-16T09:26:18;14.30;99.90
51825;DHT22;37879;52.986;6.282;2022-10-16T09:28:45;14.40;99.90
51825;DHT22;37879;52.986;6.282;2022-10-16T09:31:17;14.60;99.90
51825;DHT22;37879;52.986;6.282;2022-10-16T09:33:45;14.30;99.90
51825;DHT22;37879;52.986;6.282;2022-10-16T09:36:13;14.80;99.90
51825;DHT22;37879;52.986;6.282;2022-10-16T09:38:39;14.90;99.90
51825;DHT22;37879;52.986;6.282;2022-10-16T09:51:00;15.50;99.90
51825;DHT22;37879;52.986;6.282;2022-10-16T09:53:38;15.50;99.90
51825;DHT22;37879;52.986;6.282;2022-10-16T09:56:04;15.50;99.90
51825;DHT22;37879;52.986;6.282;2022-10-16T09:58:32;15.50;99.90
51825;DHT22;37879;52.986;6.282;2022-10-16T10:00:59;15.60;99.90
51825;DHT22;37879;52.986;6.282;2022-10-16T10:03:38;15.60;99.90
51825;DHT22;37879;52.986;6.282;2022-10-16T10:06:25;15.70;99.90
51825;DHT22;37879;52.986;6.282;2022-10-16T10:11:42;15.80;99.90
51825;DHT22;37879;52.986;6.282;2022-10-16T10:16:47;15.80;99.90
51825;DHT22;37879;52.986;6.282;2022-10-16T10:19:22;15.90;99.90
51825;DHT22;37879;52.986;6.282;2022-10-16T10:21:49;15.80;99.90
51825;DHT22;37879;52.986;6.282;2022-10-16T10:24:17;15.80;99.90
51825;DHT22;37879;52.986;6.282;2022-10-16T10:26:57;15.80;99.90
51825;DHT22;37879;52.986;6.282;2022-10-16T10:29:36;15.80;99.90
51825;DHT22;37879;52.986;6.282;2022-10-16T10:34:45;15.70;99.90
51825;DHT22;37879;52.986;6.282;2022-10-16T10:40:24;15.80;99.90
51825;DHT22;37879;52.986;6.282;2022-10-16T10:45:54;15.90;99.90
51825;DHT22;37879;52.986;6.282;2022-10-16T10:51:08;16.10;99.90
51825;DHT22;37879;52.986;6.282;2022-10-16T11:00:23;16.20;99.90
51825;DHT22;37879;52.986;6.282;2022-10-16T11:05:36;16.20;99.90
51825;DHT22;37879;52.986;6.282;2022-10-16T11:16:30;16.30;99.90
51825;DHT22;37879;52.986;6.282;2022-10-16T11:21:34;16.40;99.90
51825;DHT22;37879;52.986;6.282;2022-10-16T11:24:06;16.30;99.90
51825;DHT22;37879;52.986;6.282;2022-10-16T11:26:39;16.20;99.90
51825;DHT22;37879;52.986;6.282;2022-10-16T11:29:13;16.10;99.90
51825;DHT22;37879;52.986;6.282;2022-10-16T11:31:45;16.00;99.90
51825;DHT22;37879;52.986;6.282;2022-10-16T11:34:28;15.90;99.90
51825;DHT22;37879;52.986;6.282;2022-10-16T11:37:10;15.90;99.90
51825;DHT22;37879;52.986;6.282;2022-10-16T11:39:38;15.80;99.90
51825;DHT22;37879;52.986;6.282;2022-10-16T11:42:18;15.70;99.90
51825;DHT22;37879;52.986;6.282;2022-10-16T11:47:54;15.90;99.90
51825;DHT22;37879;52.986;6.282;2022-10-16T11:53:32;16.10;99.90
51825;DHT22;37879;52.986;6.282;2022-10-16T11:56:00;16.30;99.90
51825;DHT22;37879;52.986;6.282;2022-10-16T11:58:37;16.40;99.90
51825;DHT22;37879;52.986;6.282;2022-10-16T12:04:34;16.60;99.90
51825;DHT22;37879;52.986;6.282;2022-10-16T12:07:14;16.60;99.90
51825;DHT22;37879;52.986;6.282;2022-10-16T12:09:43;16.50;99.90
51825;DHT22;37879;52.986;6.282;2022-10-16T12:12:39;16.40;99.90
51825;DHT22;37879;52.986;6.282;2022-10-16T12:17:37;16.40;99.90
51825;DHT22;37879;52.986;6.282;2022-10-16T12:22:42;16.60;99.90
51825;DHT22;37879;52.986;6.282;2022-10-16T12:25:35;16.70;99.90
51825;DHT22;37879;52.986;6.282;2022-10-16T12:30:29;16.90;99.90
51825;DHT22;37879;52.986;6.282;2022-10-16T12:33:04;17.00;99.90
51825;DHT22;37879;52.986;6.282;2022-10-16T12:35:32;17.10;99.90
51825;DHT22;37879;52.986;6.282;2022-10-16T12:38:15;17.10;99.90
51825;DHT22;37879;52.986;6.282;2022-10-16T12:40:43;17.20;99.90
51825;DHT22;37879;52.986;6.282;2022-10-16T12:43:43;17.20;99.90
51825;DHT22;37879;52.986;6.282;2022-10-16T12:48:36;17.30;99.90
51825;DHT22;37879;52.986;6.282;2022-10-16T12:51:12;17.50;99.90
51825;DHT22;37879;52.986;6.282;2022-10-16T12:53:38;17.50;99.90
51825;DHT22;37879;52.986;6.282;2022-10-16T12:56:24;17.50;99.90
51825;DHT22;37879;52.986;6.282;2022-10-16T12:59:04;17.40;99.90
51825;DHT22;37879;52.986;6.282;2022-10-16T13:05:14;17.60;99.90
51825;DHT22;37879;52.986;6.282;2022-10-16T13:26:57;18.20;99.90
51825;DHT22;37879;52.986;6.282;2022-10-16T13:29:31;18.20;99.90
51825;DHT22;37879;52.986;6.282;2022-10-16T13:31:58;18.20;99.90
51825;DHT22;37879;52.986;6.282;2022-10-16T13:34:25;18.10;99.90
51825;DHT22;37879;52.986;6.282;2022-10-16T13:36:53;17.90;99.90
51825;DHT22;37879;52.986;6.282;2022-10-16T13:39:23;17.70;99.90
51825;DHT22;37879;52.986;6.282;2022-10-16T13:42:05;17.60;99.90
51825;DHT22;37879;52.986;6.282;2022-10-16T13:44:39;17.40;99.90
51825;DHT22;37879;52.986;6.282;2022-10-16T13:47:16;17.20;99.90
51825;DHT22;37879;52.986;6.282;2022-10-16T13:49:42;17.10;99.90
51825;DHT22;37879;52.986;6.282;2022-10-16T13:52:18;17.10;99.90
51825;DHT22;37879;52.986;6.282;2022-10-16T13:54:44;17.20;99.90
51825;DHT22;37879;52.986;6.282;2022-10-16T13:57:14;17.20;99.90
51825;DHT22;37879;52.986;6.282;2022-10-16T13:59:40;17.20;99.90
51825;DHT22;37879;52.986;6.282;2022-10-16T14:04:54;17.30;99.90
51825;DHT22;37879;52.986;6.282;2022-10-16T14:07:27;17.40;99.90
51825;DHT22;37879;52.986;6.282;2022-10-16T14:09:54;17.50;99.90
51825;DHT22;37879;52.986;6.282;2022-10-16T14:12:22;17.40;99.90
51825;DHT22;37879;52.986;6.282;2022-10-16T14:14:53;17.30;99.90
51825;DHT22;37879;52.986;6.282;2022-10-16T14:17:23;17.30;99.90
51825;DHT22;37879;52.986;6.282;2022-10-16T14:19:51;17.20;99.90
51825;DHT22;37879;52.986;6.282;2022-10-16T14:25:02;16.90;99.90
51825;DHT22;37879;52.986;6.282;2022-10-16T14:27:36;16.80;99.90
51825;DHT22;37879;52.986;6.282;2022-10-16T14:32:41;16.50;99.90
51825;DHT22;37879;52.986;6.282;2022-10-16T14:35:37;16.30;99.90
51825;DHT22;37879;52.986;6.282;2022-10-16T14:38:05;16.20;99.90
51825;DHT22;37879;52.986;6.282;2022-10-16T14:40:33;16.20;99.90
51825;DHT22;37879;52.986;6.282;2022-10-16T14:43:01;16.10;99.90
51825;DHT22;37879;52.986;6.282;2022-10-16T14:45:32;16.00;99.90
51825;DHT22;37879;52.986;6.282;2022-10-16T14:48:01;16.00;99.90
51825;DHT22;37879;52.986;6.282;2022-10-16T14:50:28;15.90;99.90
51825;DHT22;37879;52.986;6.282;2022-10-16T14:52:54;15.80;99.90
51825;DHT22;37879;52.986;6.282;2022-10-16T14:55:20;15.80;99.90
51825;DHT22;37879;52.986;6.282;2022-10-16T14:57:47;15.70;99.90
51825;DHT22;37879;52.986;6.282;2022-10-16T15:00:17;15.60;99.90
51825;DHT22;37879;52.986;6.282;2022-10-16T15:02:44;15.60;99.90
51825;DHT22;37879;52.986;6.282;2022-10-16T15:07:52;15.50;99.90
51825;DHT22;37879;52.986;6.282;2022-10-16T15:10:20;15.50;99.90
51825;DHT22;37879;52.986;6.282;2022-10-16T15:12:46;15.50;99.90
51825;DHT22;37879;52.986;6.282;2022-10-16T15:17:54;15.50;99.90
51825;DHT22;37879;52.986;6.282;2022-10-16T15:20:28;15.40;99.90
51825;DHT22;37879;52.986;6.282;2022-10-16T15:22:54;15.40;99.90
51825;DHT22;37879;52.986;6.282;2022-10-16T15:25:38;15.40;99.90
51825;DHT22;37879;52.986;6.282;2022-10-16T15:28:08;15.30;99.90
51825;DHT22;37879;52.986;6.282;2022-10-16T15:30:35;15.30;99.90
51825;DHT22;37879;52.986;6.282;2022-10-16T15:33:02;15.20;99.90
51825;DHT22;37879;52.986;6.282;2022-10-16T15:35:28;15.20;99.90
51825;DHT22;37879;52.986;6.282;2022-10-16T15:37:54;15.10;99.90
51825;DHT22;37879;52.986;6.282;2022-10-16T15:40:20;15.10;99.90
51825;DHT22;37879;52.986;6.282;2022-10-16T15:42:49;15.00;99.90
51825;DHT22;37879;52.986;6.282;2022-10-16T15:45:16;14.90;99.90
51825;DHT22;37879;52.986;6.282;2022-10-16T15:47:43;14.90;99.90
51825;DHT22;37879;52.986;6.282;2022-10-16T15:50:13;14.80;99.90
51825;DHT22;37879;52.986;6.282;2022-10-16T15:52:40;14.70;99.90
51825;DHT22;37879;52.986;6.282;2022-10-16T15:55:08;14.60;99.90
51825;DHT22;37879;52.986;6.282;2022-10-16T15:57:34;14.50;99.90
51825;DHT22;37879;52.986;6.282;2022-10-16T16:00:00;14.40;99.90
51825;DHT22;37879;52.986;6.282;2022-10-16T16:02:25;14.30;99.90
51825;DHT22;37879;52.986;6.282;2022-10-16T16:04:51;14.30;99.90
51825;DHT22;37879;52.986;6.282;2022-10-16T16:07:17;14.20;99.90
51825;DHT22;37879;52.986;6.282;2022-10-16T16:09:43;14.10;99.90
51825;DHT22;37879;52.986;6.282;2022-10-16T16:12:10;14.10;99.90
51825;DHT22;37879;52.986;6.282;2022-10-16T16:14:36;14.00;99.90
51825;DHT22;37879;52.986;6.282;2022-10-16T16:17:01;14.00;99.90
51825;DHT22;37879;52.986;6.282;2022-10-16T16:19:27;13.90;99.90
51825;DHT22;37879;52.986;6.282;2022-10-16T16:21:53;13.90;99.90
51825;DHT22;37879;52.986;6.282;2022-10-16T16:24:18;13.80;99.90
51825;DHT22;37879;52.986;6.282;2022-10-16T16:26:47;13.70;99.90
51825;DHT22;37879;52.986;6.282;2022-10-16T16:29:15;13.60;99.90
51825;DHT22;37879;52.986;6.282;2022-10-16T16:31:41;13.50;99.90
51825;DHT22;37879;52.986;6.282;2022-10-16T16:34:08;13.50;99.90
51825;DHT22;37879;52.986;6.282;2022-10-16T16:36:34;13.40;99.90
51825;DHT22;37879;52.986;6.282;2022-10-16T16:39:00;13.30;99.90
51825;DHT22;37879;52.986;6.282;2022-10-16T16:41:28;13.30;99.90
51825;DHT22;37879;52.986;6.282;2022-10-16T16:43:55;13.20;99.90
51825;DHT22;37879;52.986;6.282;2022-10-16T16:46:26;13.10;99.90
51825;DHT22;37879;52.986;6.282;2022-10-16T16:48:52;13.00;99.90
51825;DHT22;37879;52.986;6.282;2022-10-16T16:51:21;13.00;99.90
51825;DHT22;37879;52.986;6.282;2022-10-16T16:53:49;12.90;99.90
51825;DHT22;37879;52.986;6.282;2022-10-16T16:56:15;12.80;99.90
51825;DHT22;37879;52.986;6.282;2022-10-16T16:58:40;12.80;99.90
51825;DHT22;37879;52.986;6.282;2022-10-16T17:01:09;12.70;99.90
51825;DHT22;37879;52.986;6.282;2022-10-16T17:03:35;12.70;99.90
51825;DHT22;37879;52.986;6.282;2022-10-16T17:06:07;12.60;99.90
51825;DHT22;37879;52.986;6.282;2022-10-16T17:08:37;12.60;99.90
51825;DHT22;37879;52.986;6.282;2022-10-16T17:11:03;12.50;99.90
51825;DHT22;37879;52.986;6.282;2022-10-16T17:13:31;12.40;99.90
51825;DHT22;37879;52.986;6.282;2022-10-16T17:16:00;12.40;99.90
51825;DHT22;37879;52.986;6.282;2022-10-16T17:18:26;12.40;99.90
51825;DHT22;37879;52.986;6.282;2022-10-16T17:20:52;12.30;99.90
51825;DHT22;37879;52.986;6.282;2022-10-16T17:23:19;12.20;99.90
51825;DHT22;37879;52.986;6.282;2022-10-16T17:25:45;12.20;99.90
51825;DHT22;37879;52.986;6.282;2022-10-16T17:28:12;12.10;99.90
51825;DHT22;37879;52.986;6.282;2022-10-16T17:30:39;12.10;99.90
51825;DHT22;37879;52.986;6.282;2022-10-16T17:33:06;12.10;99.90
51825;DHT22;37879;52.986;6.282;2022-10-16T17:35:46;12.00;99.90
51825;DHT22;37879;52.986;6.282;2022-10-16T17:38:13;12.10;99.90
51825;DHT22;37879;52.986;6.282;2022-10-16T17:40:39;12.10;99.90
51825;DHT22;37879;52.986;6.282;2022-10-16T17:43:05;12.10;99.90
51825;DHT22;37879;52.986;6.282;2022-10-16T17:45:34;12.00;99.90
51825;DHT22;37879;52.986;6.282;2022-10-16T17:48:00;12.00;99.90
51825;DHT22;37879;52.986;6.282;2022-10-16T17:50:26;12.00;99.90